createdAt,value
2017-03-30T00:00:40.642Z,99.99
2017-03-30T00:01:49.604Z,99.99
2017-03-30T00:02:58.979Z,99.99
2017-03-30T00:04:08.182Z,99.99
2017-03-30T00:05:17.140Z,99.99
2017-03-30T00:06:26.093Z,99.99
2017-03-30T00:07:35.050Z,99.99
2017-03-30T00:08:44.003Z,99.99
2017-03-30T00:09:53.209Z,99.99
2017-03-30T00:11:02.165Z,99.99
2017-03-30T00:12:11.123Z,99.99
2017-03-30T00:13:20.079Z,99.99
2017-03-30T00:14:29.032Z,99.99
2017-03-30T00:15:38.240Z,99.99
2017-03-30T00:16:47.196Z,99.99
2017-03-30T00:17:56.154Z,99.99
2017-03-30T00:19:05.111Z,99.99
2017-03-30T00:20:14.064Z,99.99
2017-03-30T00:21:23.271Z,99.99
2017-03-30T00:22:32.231Z,99.99
2017-03-30T00:23:41.185Z,99.99
2017-03-30T00:24:50.167Z,99.99
2017-03-30T00:25:59.126Z,99.99
2017-03-30T00:27:08.339Z,99.99
2017-03-30T00:28:17.386Z,99.99
2017-03-30T00:29:26.339Z,99.99
2017-03-30T00:30:35.290Z,99.99
2017-03-30T00:31:44.244Z,99.99
2017-03-30T00:32:53.451Z,99.99
2017-03-30T00:34:02.406Z,99.99
2017-03-30T00:35:11.356Z,99.99
2017-03-30T00:36:20.314Z,99.99
2017-03-30T00:37:29.273Z,99.99
2017-03-30T00:38:38.478Z,99.99
2017-03-30T00:39:47.438Z,99.99
2017-03-30T00:40:56.393Z,99.99
2017-03-30T00:42:05.349Z,99.99
2017-03-30T00:43:14.301Z,99.99
2017-03-30T00:44:23.507Z,99.99
2017-03-30T00:45:32.459Z,99.99
2017-03-30T00:46:41.413Z,99.99
2017-03-30T00:47:50.366Z,99.99
2017-03-30T00:48:59.359Z,99.99
2017-03-30T00:50:08.644Z,99.99
2017-03-30T00:51:17.686Z,99.99
2017-03-30T00:52:26.642Z,99.99
2017-03-30T00:53:35.598Z,99.99
2017-03-30T00:54:44.555Z,99.99
2017-03-30T00:55:53.759Z,99.99
2017-03-30T00:57:02.710Z,99.99
2017-03-30T00:58:11.669Z,99.99
2017-03-30T00:59:20.708Z,99.99
2017-03-30T01:00:29.660Z,99.99
2017-03-30T01:01:38.865Z,99.99
2017-03-30T01:02:47.819Z,99.99
2017-03-30T01:03:56.773Z,99.99
2017-03-30T01:05:05.737Z,99.99
2017-03-30T01:06:14.693Z,99.99
2017-03-30T01:07:23.903Z,99.99
2017-03-30T01:08:32.856Z,99.99
2017-03-30T01:09:41.817Z,99.99
2017-03-30T01:10:50.779Z,99.99
2017-03-30T01:11:59.734Z,99.99
2017-03-30T01:13:08.939Z,99.99
2017-03-30T01:14:17.891Z,99.99
2017-03-30T01:15:26.845Z,99.99
2017-03-30T01:16:35.804Z,99.99
2017-03-30T01:17:44.788Z,99.99
2017-03-30T01:18:53.993Z,99.99
2017-03-30T01:20:02.970Z,99.99
2017-03-30T01:21:11.927Z,99.99
2017-03-30T01:22:20.972Z,99.99
2017-03-30T01:23:29.925Z,99.99
2017-03-30T01:24:39.214Z,99.99
2017-03-30T01:25:48.172Z,99.99
2017-03-30T01:26:57.215Z,99.99
2017-03-30T01:28:06.174Z,99.99
2017-03-30T01:29:15.132Z,99.99
2017-03-30T01:30:24.333Z,99.99
2017-03-30T01:31:33.293Z,99.99
2017-03-30T01:32:42.248Z,99.99
2017-03-30T01:33:51.202Z,99.99
2017-03-30T01:35:00.161Z,99.99
2017-03-30T01:36:09.367Z,99.99
2017-03-30T01:37:18.318Z,99.99
2017-03-30T01:38:27.273Z,99.99
2017-03-30T01:39:36.223Z,99.99
2017-03-30T01:40:45.179Z,99.99
2017-03-30T01:41:54.407Z,99.99
2017-03-30T01:43:03.357Z,99.99
2017-03-30T01:44:12.309Z,99.99
2017-03-30T01:45:21.268Z,99.99
2017-03-30T01:46:30.230Z,99.99
2017-03-30T01:47:39.447Z,99.99
2017-03-30T01:48:48.402Z,99.99
2017-03-30T01:49:57.360Z,99.99
2017-03-30T01:51:06.411Z,99.99
2017-03-30T01:52:15.362Z,99.99
2017-03-30T01:53:24.571Z,99.99
2017-03-30T01:54:33.523Z,99.99
2017-03-30T01:55:42.479Z,99.99
2017-03-30T01:56:51.433Z,99.99
2017-03-30T01:58:00.385Z,99.99
2017-03-30T01:59:09.590Z,99.99
2017-03-30T02:00:18.539Z,99.99
2017-03-30T02:01:27.499Z,99.99
2017-03-30T02:02:36.458Z,99.99
2017-03-30T02:03:45.412Z,99.99
2017-03-30T02:04:54.619Z,99.99
2017-03-30T02:06:03.577Z,99.99
2017-03-30T02:07:12.531Z,99.99
2017-03-30T02:08:21.483Z,99.99
2017-03-30T02:09:30.445Z,99.99
2017-03-30T02:10:39.741Z,99.99
2017-03-30T02:11:48.694Z,99.99
2017-03-30T02:12:57.651Z,99.99
2017-03-30T02:14:06.691Z,99.99
2017-03-30T02:15:15.649Z,99.99
2017-03-30T02:16:24.852Z,99.99
2017-03-30T02:17:33.804Z,99.99
2017-03-30T02:18:42.757Z,99.99
2017-03-30T02:19:51.714Z,99.99
2017-03-30T02:21:00.995Z,99.99
2017-03-30T02:22:10.205Z,99.99
2017-03-30T02:23:19.160Z,99.99
2017-03-30T02:24:28.140Z,99.99
2017-03-30T02:25:37.091Z,99.99
2017-03-30T02:26:46.044Z,99.99
2017-03-30T02:27:55.342Z,99.99
2017-03-30T02:29:04.296Z,99.99
2017-03-30T02:30:13.254Z,99.99
2017-03-30T02:31:22.207Z,99.99
2017-03-30T02:32:31.165Z,99.99
2017-03-30T02:33:40.372Z,99.99
2017-03-30T02:34:49.331Z,99.99
2017-03-30T02:35:58.624Z,99.99
2017-03-30T02:37:07.903Z,99.99
2017-03-30T02:38:16.946Z,99.99
2017-03-30T02:39:26.148Z,99.99
2017-03-30T02:40:35.103Z,99.99
2017-03-30T02:41:44.062Z,99.99
2017-03-30T02:42:53.025Z,99.99
2017-03-30T02:44:01.984Z,99.99
2017-03-30T02:45:11.274Z,99.99
2017-03-30T02:46:20.229Z,99.99
2017-03-30T02:47:29.199Z,99.99
2017-03-30T02:48:38.151Z,99.99
2017-03-30T02:49:47.102Z,99.99
2017-03-30T02:50:56.308Z,99.99
2017-03-30T02:52:05.265Z,99.99
2017-03-30T02:53:14.229Z,99.99
2017-03-30T02:54:23.185Z,99.99
2017-03-30T02:55:32.177Z,99.99
2017-03-30T02:56:41.389Z,99.99
2017-03-30T02:57:50.344Z,99.99
2017-03-30T02:58:59.300Z,99.99
2017-03-30T03:00:08.261Z,99.99
2017-03-30T03:01:17.216Z,99.99
2017-03-30T03:02:26.418Z,99.99
2017-03-30T03:03:35.373Z,99.99
2017-03-30T03:04:44.413Z,99.99
2017-03-30T03:05:53.371Z,99.99
2017-03-30T03:07:02.325Z,99.99
2017-03-30T03:08:11.534Z,99.99
2017-03-30T03:09:20.490Z,99.99
2017-03-30T03:10:29.453Z,99.99
2017-03-30T03:11:38.436Z,99.99
2017-03-30T03:12:47.405Z,99.99
2017-03-30T03:13:56.613Z,99.99
2017-03-30T03:15:05.569Z,99.99
2017-03-30T03:16:14.522Z,99.99
2017-03-30T03:17:23.481Z,99.99
2017-03-30T03:18:32.433Z,99.99
2017-03-30T03:19:41.633Z,99.99
2017-03-30T03:20:50.583Z,99.99
2017-03-30T03:21:59.541Z,99.99
2017-03-30T03:23:08.823Z,99.99
2017-03-30T03:24:17.866Z,99.99
2017-03-30T03:25:27.068Z,99.99
2017-03-30T03:26:36.022Z,99.99
2017-03-30T03:27:45.063Z,99.99
2017-03-30T03:28:54.013Z,99.99
2017-03-30T03:30:03.054Z,99.99
2017-03-30T03:31:12.263Z,99.99
2017-03-30T03:32:21.221Z,99.99
2017-03-30T03:33:30.176Z,99.99
2017-03-30T03:34:39.162Z,99.99
2017-03-30T03:35:48.121Z,99.99
2017-03-30T03:36:57.329Z,99.99
2017-03-30T03:38:06.309Z,99.99
2017-03-30T03:39:15.268Z,99.99
2017-03-30T03:40:24.219Z,99.99
2017-03-30T03:41:33.167Z,99.99
2017-03-30T03:42:42.371Z,99.99
2017-03-30T03:43:51.322Z,99.99
2017-03-30T03:45:00.287Z,99.99
2017-03-30T03:46:09.243Z,99.99
2017-03-30T03:47:18.195Z,99.99
2017-03-30T03:48:27.401Z,99.99
2017-03-30T03:49:36.359Z,99.99
2017-03-30T03:50:45.313Z,99.99
2017-03-30T03:51:54.876Z,99.99
2017-03-30T03:53:03.838Z,99.99
2017-03-30T03:54:13.097Z,99.99
2017-03-30T03:55:22.056Z,99.99
2017-03-30T03:56:31.018Z,99.99
2017-03-30T03:57:39.974Z,99.99
2017-03-30T03:58:48.928Z,99.99
2017-03-30T03:59:58.515Z,99.99
2017-03-30T04:01:07.480Z,99.99
2017-03-30T04:02:16.440Z,99.99
2017-03-30T04:03:25.395Z,99.99
2017-03-30T04:04:34.350Z,99.99
2017-03-30T04:05:43.934Z,99.99
2017-03-30T04:06:52.891Z,99.99
2017-03-30T04:08:01.850Z,99.99
2017-03-30T04:09:10.810Z,99.99
2017-03-30T04:10:19.940Z,99.99
2017-03-30T04:11:29.198Z,99.99
2017-03-30T04:12:38.152Z,99.99
2017-03-30T04:13:47.103Z,99.99
2017-03-30T04:14:56.070Z,99.99
2017-03-30T04:16:05.346Z,99.99
2017-03-30T04:17:14.603Z,99.99
2017-03-30T04:18:23.555Z,99.99
2017-03-30T04:19:32.521Z,99.99
2017-03-30T04:20:41.564Z,99.99
2017-03-30T04:21:50.519Z,99.99
2017-03-30T04:22:59.776Z,99.99
2017-03-30T04:24:08.731Z,99.99
2017-03-30T04:25:17.690Z,99.99
2017-03-30T04:26:26.660Z,99.99
2017-03-30T04:27:35.616Z,99.99
2017-03-30T04:28:44.876Z,99.99
2017-03-30T04:29:53.832Z,99.99
2017-03-30T04:31:03.121Z,99.99
2017-03-30T04:32:12.073Z,99.99
2017-03-30T04:33:21.137Z,99.99
2017-03-30T04:34:30.351Z,99.99
2017-03-30T04:35:39.308Z,99.99
2017-03-30T04:36:48.271Z,99.99
2017-03-30T04:37:57.231Z,99.99
2017-03-30T04:39:06.212Z,99.99
2017-03-30T04:40:15.467Z,99.99
2017-03-30T04:41:24.423Z,99.99
2017-03-30T04:42:33.377Z,99.99
2017-03-30T04:43:42.330Z,99.99
2017-03-30T04:44:51.284Z,99.99
2017-03-30T04:46:00.540Z,99.99
2017-03-30T04:47:09.496Z,99.99
2017-03-30T04:48:18.453Z,99.99
2017-03-30T04:49:27.408Z,99.99
2017-03-30T04:50:36.360Z,99.99
2017-03-30T04:51:45.617Z,99.99
2017-03-30T04:52:54.572Z,99.99
2017-03-30T04:54:03.529Z,99.99
2017-03-30T04:55:12.480Z,99.99
2017-03-30T04:56:21.432Z,99.99
2017-03-30T04:57:30.687Z,99.99
2017-03-30T04:58:39.640Z,99.99
2017-03-30T04:59:48.596Z,99.99
2017-03-30T05:00:57.552Z,99.99
2017-03-30T05:02:06.524Z,99.99
2017-03-30T05:03:15.780Z,99.99
2017-03-30T05:04:24.823Z,99.99
2017-03-30T05:05:33.778Z,99.99
2017-03-30T05:06:42.731Z,99.99
2017-03-30T05:07:51.691Z,99.99
2017-03-30T05:09:01.282Z,99.99
2017-03-30T05:10:10.238Z,99.99
2017-03-30T05:11:19.191Z,99.99
2017-03-30T05:12:28.147Z,99.99
2017-03-30T05:13:37.107Z,99.99
2017-03-30T05:14:46.447Z,99.99
2017-03-30T05:15:55.492Z,99.99
2017-03-30T05:17:04.442Z,99.99
2017-03-30T05:18:13.396Z,99.99
2017-03-30T05:19:22.439Z,99.99
2017-03-30T05:20:31.694Z,99.99
2017-03-30T05:21:40.657Z,99.99
2017-03-30T05:22:49.942Z,99.99
2017-03-30T05:23:58.904Z,99.99
2017-03-30T05:25:07.861Z,99.99
2017-03-30T05:26:17.119Z,99.99
2017-03-30T05:27:26.080Z,99.99
2017-03-30T05:28:35.034Z,99.99
2017-03-30T05:29:43.996Z,99.99
2017-03-30T05:30:52.951Z,99.99
2017-03-30T05:32:02.206Z,99.99
2017-03-30T05:33:11.162Z,99.99
2017-03-30T05:34:20.116Z,99.99
2017-03-30T05:35:29.157Z,99.99
2017-03-30T05:36:38.108Z,99.99
2017-03-30T05:37:47.315Z,99.99
2017-03-30T05:38:56.270Z,99.99
2017-03-30T05:40:05.233Z,99.99
2017-03-30T05:41:14.197Z,99.99
2017-03-30T05:42:23.238Z,99.99
2017-03-30T05:43:32.487Z,99.99
2017-03-30T05:44:41.442Z,99.99
2017-03-30T05:45:50.395Z,99.99
2017-03-30T05:46:59.436Z,99.99
2017-03-30T05:48:08.390Z,99.99
2017-03-30T05:49:17.595Z,99.99
2017-03-30T05:50:26.545Z,99.99
2017-03-30T05:51:35.508Z,99.99
2017-03-30T05:52:44.793Z,99.99
2017-03-30T05:53:53.833Z,99.99
2017-03-30T05:55:03.374Z,99.99
2017-03-30T05:56:12.338Z,99.99
2017-03-30T05:57:22.430Z,99.99
2017-03-30T05:58:33.884Z,99.99
2017-03-30T05:59:42.865Z,99.99
2017-03-30T06:00:52.122Z,99.99
2017-03-30T06:02:01.076Z,99.99
2017-03-30T06:03:10.028Z,99.99
2017-03-30T06:04:18.983Z,99.99
2017-03-30T06:05:27.939Z,99.99
2017-03-30T06:06:37.285Z,99.99
2017-03-30T06:07:46.339Z,99.99
2017-03-30T06:08:55.374Z,99.99
2017-03-30T06:10:04.327Z,99.99
2017-03-30T06:11:13.287Z,99.99
2017-03-30T06:12:22.545Z,99.99
2017-03-30T06:13:31.509Z,99.99
2017-03-30T06:14:40.572Z,99.99
2017-03-30T06:15:49.566Z,99.99
2017-03-30T06:16:58.926Z,99.99
2017-03-30T06:18:08.266Z,99.99
2017-03-30T06:19:17.546Z,99.99
2017-03-30T06:20:26.600Z,99.99
2017-03-30T06:21:35.551Z,99.99
2017-03-30T06:22:44.507Z,99.99
2017-03-30T06:23:53.773Z,99.99
2017-03-30T06:25:02.756Z,99.99
2017-03-30T06:26:11.737Z,99.99
2017-03-30T06:27:20.724Z,99.99
2017-03-30T06:28:29.707Z,99.99
2017-03-30T06:29:38.986Z,99.99
2017-03-30T06:30:47.965Z,99.99
2017-03-30T06:31:56.943Z,99.99
2017-03-30T06:33:05.921Z,99.99
2017-03-30T06:34:14.906Z,99.99
2017-03-30T06:35:24.186Z,99.99
2017-03-30T06:36:33.165Z,99.99
2017-03-30T06:37:42.152Z,99.99
2017-03-30T06:38:51.129Z,99.99
2017-03-30T06:40:00.110Z,99.99
2017-03-30T06:41:09.394Z,99.99
2017-03-30T06:42:18.377Z,99.99
2017-03-30T06:43:27.352Z,99.99
2017-03-30T06:44:36.326Z,99.99
2017-03-30T06:45:45.306Z,99.99
2017-03-30T06:46:54.584Z,99.99
2017-03-30T06:48:03.566Z,99.99
2017-03-30T06:49:12.553Z,99.99
2017-03-30T06:50:21.536Z,99.99
2017-03-30T06:51:30.515Z,99.99
2017-03-30T06:52:39.793Z,99.99
2017-03-30T06:53:48.770Z,99.99
2017-03-30T06:54:57.750Z,99.99
2017-03-30T06:56:06.731Z,99.99
2017-03-30T06:57:15.704Z,99.99
2017-03-30T06:58:24.989Z,99.99
2017-03-30T06:59:33.983Z,99.99
2017-03-30T07:00:43.050Z,99.99
2017-03-30T07:01:52.029Z,99.99
2017-03-30T07:03:01.018Z,99.99
2017-03-30T07:04:10.385Z,99.99
2017-03-30T07:05:19.365Z,99.99
2017-03-30T07:06:28.344Z,99.99
2017-03-30T07:07:37.321Z,99.99
2017-03-30T07:08:46.309Z,99.99
2017-03-30T07:09:55.592Z,99.99
2017-03-30T07:11:04.581Z,99.99
2017-03-30T07:12:13.562Z,99.99
2017-03-30T07:13:22.538Z,99.99
2017-03-30T07:14:31.528Z,99.99
2017-03-30T07:15:40.806Z,99.99
2017-03-30T07:16:49.787Z,99.99
2017-03-30T07:17:58.861Z,99.99
2017-03-30T07:19:08.174Z,99.99
2017-03-30T07:20:17.149Z,99.99
2017-03-30T07:21:26.426Z,99.99
2017-03-30T07:22:35.409Z,99.99
2017-03-30T07:23:44.395Z,99.99
2017-03-30T07:24:53.373Z,99.99
2017-03-30T07:26:02.357Z,99.99
2017-03-30T07:27:11.641Z,99.99
2017-03-30T07:28:20.619Z,99.99
2017-03-30T07:29:29.683Z,99.99
2017-03-30T07:30:38.758Z,99.99
2017-03-30T07:31:47.825Z,99.99
2017-03-30T07:32:57.107Z,99.99
2017-03-30T07:34:06.113Z,99.99
2017-03-30T07:35:15.096Z,99.99
2017-03-30T07:36:24.163Z,99.99
2017-03-30T07:37:33.147Z,99.99
2017-03-30T07:38:42.427Z,99.99
2017-03-30T07:39:51.407Z,99.99
2017-03-30T07:41:00.475Z,99.99
2017-03-30T07:42:09.550Z,99.99
2017-03-30T07:43:18.522Z,99.99
2017-03-30T07:44:27.805Z,99.99
2017-03-30T07:45:36.791Z,99.99
2017-03-30T07:46:45.865Z,99.99
2017-03-30T07:47:54.847Z,99.99
2017-03-30T07:49:03.840Z,99.99
2017-03-30T07:50:13.115Z,99.99
2017-03-30T07:51:22.100Z,99.99
2017-03-30T07:52:31.091Z,99.99
2017-03-30T07:53:40.077Z,99.99
2017-03-30T07:54:49.068Z,99.99
2017-03-30T07:55:58.380Z,99.99
2017-03-30T07:57:07.452Z,99.99
2017-03-30T07:58:16.430Z,99.99
2017-03-30T07:59:25.406Z,99.99
2017-03-30T08:00:34.387Z,99.99
2017-03-30T08:01:43.665Z,99.99
2017-03-30T08:02:52.639Z,99.99
2017-03-30T08:04:01.705Z,99.99
2017-03-30T08:05:10.685Z,99.99
2017-03-30T08:06:19.665Z,99.99
2017-03-30T08:07:28.984Z,99.99
2017-03-30T08:08:37.961Z,99.99
2017-03-30T08:09:46.941Z,99.99
2017-03-30T08:10:55.925Z,99.99
2017-03-30T08:12:04.992Z,99.99
2017-03-30T08:13:14.280Z,99.99
2017-03-30T08:14:23.257Z,99.99
2017-03-30T08:15:32.218Z,99.99
2017-03-30T08:16:41.232Z,99.99
2017-03-30T08:17:50.185Z,99.99
2017-03-30T08:18:59.439Z,99.99
2017-03-30T08:20:08.395Z,99.99
2017-03-30T08:21:17.358Z,99.99
2017-03-30T08:22:26.316Z,99.99
2017-03-30T08:23:35.276Z,99.99
2017-03-30T08:24:44.651Z,99.99
2017-03-30T08:25:53.767Z,99.99
2017-03-30T08:27:03.406Z,99.99
2017-03-30T08:28:12.366Z,99.99
2017-03-30T08:29:21.325Z,99.99
2017-03-30T08:30:30.662Z,99.99
2017-03-30T08:31:39.719Z,99.99
2017-03-30T08:32:48.676Z,99.99
2017-03-30T08:33:57.632Z,99.99
2017-03-30T08:35:06.589Z,99.99
2017-03-30T08:36:15.899Z,99.99
2017-03-30T08:37:24.855Z,99.99
2017-03-30T08:38:33.900Z,99.99
2017-03-30T08:39:42.863Z,99.99
2017-03-30T08:40:51.821Z,99.99
2017-03-30T08:42:01.157Z,99.99
2017-03-30T08:43:10.482Z,99.99
2017-03-30T08:44:23.835Z,99.99
2017-03-30T08:45:45.160Z,99.99
2017-03-30T08:46:54.239Z,99.99
2017-03-30T08:48:03.496Z,99.99
2017-03-30T08:49:12.618Z,99.99
2017-03-30T08:50:21.622Z,99.99
2017-03-30T08:51:30.706Z,99.99
2017-03-30T08:52:40.179Z,99.99
2017-03-30T08:53:49.407Z,99.99
2017-03-30T08:54:58.484Z,99.99
2017-03-30T08:56:07.568Z,99.99
2017-03-30T08:57:16.535Z,99.99
2017-03-30T08:58:25.795Z,99.99
2017-03-30T08:59:34.758Z,99.99
2017-03-30T09:00:43.720Z,99.99
2017-03-30T09:01:52.673Z,99.99
2017-03-30T09:03:01.629Z,99.99
2017-03-30T09:04:10.893Z,99.99
2017-03-30T09:05:20.019Z,99.99
2017-03-30T09:06:28.982Z,99.99
2017-03-30T09:07:37.942Z,99.99
2017-03-30T09:08:46.897Z,99.99
2017-03-30T09:09:56.361Z,99.99
2017-03-30T09:11:05.318Z,99.99
2017-03-30T09:12:14.279Z,99.99
2017-03-30T09:13:23.560Z,99.99
2017-03-30T09:14:32.537Z,99.99
2017-03-30T09:15:41.749Z,99.99
2017-03-30T09:16:50.797Z,99.99
2017-03-30T09:17:59.840Z,99.99
2017-03-30T09:19:08.802Z,99.99
2017-03-30T09:20:17.766Z,99.99
2017-03-30T09:21:27.027Z,99.99
2017-03-30T09:22:35.984Z,99.99
2017-03-30T09:23:45.029Z,99.99
2017-03-30T09:24:53.986Z,99.99
2017-03-30T09:26:03.358Z,99.99
2017-03-30T09:27:12.618Z,99.99
2017-03-30T09:28:21.583Z,99.99
2017-03-30T09:29:30.540Z,99.99
2017-03-30T09:30:39.498Z,99.99
2017-03-30T09:31:48.541Z,99.99
2017-03-30T09:32:57.749Z,99.99
2017-03-30T09:34:06.702Z,99.99
2017-03-30T09:35:15.743Z,99.99
2017-03-30T09:36:24.699Z,99.99
2017-03-30T09:37:33.654Z,99.99
2017-03-30T09:38:42.916Z,99.99
2017-03-30T09:39:51.876Z,99.99
2017-03-30T09:41:00.831Z,99.99
2017-03-30T09:42:09.792Z,99.99
2017-03-30T09:43:18.787Z,99.99
2017-03-30T09:44:28.045Z,99.99
2017-03-30T09:45:37.099Z,99.99
2017-03-30T09:46:46.061Z,99.99
2017-03-30T09:47:55.017Z,99.99
2017-03-30T09:49:03.983Z,99.99
2017-03-30T09:50:13.245Z,99.99
2017-03-30T09:51:22.207Z,99.99
2017-03-30T09:52:31.169Z,99.99
2017-03-30T09:53:40.125Z,99.99
2017-03-30T09:54:49.080Z,99.99
2017-03-30T09:55:58.336Z,99.99
2017-03-30T09:57:07.383Z,99.99
2017-03-30T09:58:16.437Z,99.99
2017-03-30T09:59:25.398Z,99.99
2017-03-30T10:00:34.446Z,99.99
2017-03-30T10:01:43.798Z,99.99
2017-03-30T10:02:52.763Z,99.99
2017-03-30T10:04:01.722Z,99.99
2017-03-30T10:05:10.678Z,99.99
2017-03-30T10:06:19.637Z,99.99
2017-03-30T10:07:28.897Z,99.99
2017-03-30T10:08:37.855Z,99.99
2017-03-30T10:09:46.810Z,99.99
2017-03-30T10:10:55.860Z,99.99
2017-03-30T10:12:04.830Z,99.99
2017-03-30T10:13:14.188Z,99.99
2017-03-30T10:14:23.147Z,99.99
2017-03-30T10:15:32.107Z,99.99
2017-03-30T10:16:41.065Z,99.99
2017-03-30T10:17:50.023Z,99.99
2017-03-30T10:18:59.287Z,99.99
2017-03-30T10:20:08.333Z,99.99
2017-03-30T10:21:17.293Z,99.99
2017-03-30T10:22:26.260Z,99.99
2017-03-30T10:23:35.227Z,99.99
2017-03-30T10:24:44.571Z,99.99
2017-03-30T10:25:53.619Z,99.99
2017-03-30T10:27:02.666Z,99.99
2017-03-30T10:28:11.626Z,99.99
2017-03-30T10:29:20.586Z,99.99
2017-03-30T10:30:29.981Z,99.99
2017-03-30T10:31:38.942Z,99.99
2017-03-30T10:32:47.990Z,99.99
2017-03-30T10:33:57.044Z,99.99
2017-03-30T10:35:05.999Z,99.99
2017-03-30T10:36:15.344Z,99.99
2017-03-30T10:37:24.302Z,99.99
2017-03-30T10:38:33.264Z,99.99
2017-03-30T10:39:42.432Z,99.99
2017-03-30T10:40:51.390Z,99.99
2017-03-30T10:42:00.768Z,99.99
2017-03-30T10:43:11.005Z,99.99
2017-03-30T10:44:20.314Z,99.99
2017-03-30T10:45:29.289Z,99.99
2017-03-30T10:46:38.242Z,99.99
2017-03-30T10:47:47.505Z,99.99
2017-03-30T10:48:56.472Z,99.99
2017-03-30T10:50:05.433Z,99.99
2017-03-30T10:51:14.479Z,99.99
2017-03-30T10:52:23.438Z,99.99
2017-03-30T10:53:32.699Z,99.99
2017-03-30T10:54:41.754Z,99.99
2017-03-30T10:55:50.802Z,99.99
2017-03-30T10:56:59.761Z,99.99
2017-03-30T10:58:08.727Z,99.99
2017-03-30T10:59:17.992Z,99.99
2017-03-30T11:00:27.006Z,99.99
2017-03-30T11:01:35.965Z,99.99
2017-03-30T11:02:44.934Z,99.99
2017-03-30T11:03:53.904Z,99.99
2017-03-30T11:05:03.170Z,99.99
2017-03-30T11:06:12.130Z,99.48
2017-03-30T11:07:21.125Z,98.33
2017-03-30T11:08:30.084Z,99.48
2017-03-30T11:09:39.041Z,99.58
2017-03-30T11:10:48.320Z,99.77
2017-03-30T11:11:57.288Z,99.99
2017-03-30T11:13:06.248Z,99.99
2017-03-30T11:14:15.212Z,99.99
2017-03-30T11:15:24.172Z,99.87
2017-03-30T11:16:33.436Z,99.58
2017-03-30T11:17:42.398Z,99.72
2017-03-30T11:18:51.368Z,99.53
2017-03-30T11:20:00.363Z,99.99
2017-03-30T11:21:09.411Z,99.24
2017-03-30T11:22:18.674Z,99.43
2017-03-30T11:23:27.632Z,99.53
2017-03-30T11:24:36.593Z,98.96
2017-03-30T11:25:45.552Z,98.47
2017-03-30T11:26:54.513Z,98.19
2017-03-30T11:28:03.724Z,98.47
2017-03-30T11:29:12.685Z,97.61
2017-03-30T11:30:21.653Z,96.66
2017-03-30T11:31:30.613Z,97.8
2017-03-30T11:32:39.575Z,96.94
2017-03-30T11:33:48.832Z,97.75
2017-03-30T11:34:57.799Z,97.56
2017-03-30T11:36:06.933Z,96.7
2017-03-30T11:37:15.892Z,98.24
2017-03-30T11:38:24.853Z,98.71
2017-03-30T11:39:34.114Z,97.75
2017-03-30T11:40:43.082Z,98.24
2017-03-30T11:41:52.044Z,99.19
2017-03-30T11:43:01.014Z,98.19
2017-03-30T11:44:09.969Z,98.52
2017-03-30T11:45:19.225Z,99.99
2017-03-30T11:46:28.183Z,98.28
2017-03-30T11:47:37.141Z,96.99
2017-03-30T11:48:46.187Z,98.24
2017-03-30T11:49:55.150Z,97.75
2017-03-30T11:51:04.499Z,97.18
2017-03-30T11:52:13.459Z,97.14
2017-03-30T11:53:22.425Z,97.42
2017-03-30T11:54:31.409Z,97.47
2017-03-30T11:55:40.690Z,98.47
2017-03-30T11:56:49.949Z,99.58
2017-03-30T11:57:58.905Z,99.05
2017-03-30T11:59:07.859Z,98.81
2017-03-30T12:00:16.821Z,99.19
2017-03-30T12:01:25.785Z,99.48
2017-03-30T12:02:35.070Z,99.99
2017-03-30T12:03:44.032Z,99.87
2017-03-30T12:04:52.989Z,99.29
2017-03-30T12:06:01.948Z,99.15
2017-03-30T12:07:10.904Z,98.57
2017-03-30T12:08:20.111Z,96.66
2017-03-30T12:09:29.071Z,96.66
2017-03-30T12:10:38.034Z,97.71
2017-03-30T12:11:46.994Z,97.8
2017-03-30T12:12:55.952Z,96.84
2017-03-30T12:14:05.159Z,97.23
2017-03-30T12:15:14.204Z,97.8
2017-03-30T12:16:23.159Z,98.1
2017-03-30T12:17:32.115Z,99.53
2017-03-30T12:18:41.074Z,98.1
2017-03-30T12:19:50.353Z,97.14
2017-03-30T12:20:59.312Z,96.37
2017-03-30T12:22:08.354Z,96.66
2017-03-30T12:23:17.311Z,96.94
2017-03-30T12:24:26.270Z,98
2017-03-30T12:25:35.479Z,96.94
2017-03-30T12:26:44.433Z,96.94
2017-03-30T12:27:53.393Z,97.61
2017-03-30T12:29:02.676Z,98.14
2017-03-30T12:30:11.636Z,97.76
2017-03-30T12:31:20.898Z,96.89
2017-03-30T12:32:29.865Z,97.66
2017-03-30T12:33:38.823Z,96.7
2017-03-30T12:34:47.783Z,97.56
2017-03-30T12:35:56.749Z,98.57
2017-03-30T12:37:06.013Z,98.38
2017-03-30T12:38:14.974Z,98.57
2017-03-30T12:39:24.022Z,99.34
2017-03-30T12:40:32.990Z,97.23
2017-03-30T12:41:41.961Z,96.66
2017-03-30T12:42:51.318Z,96.56
2017-03-30T12:44:00.281Z,96.94
2017-03-30T12:45:09.243Z,97.61
2017-03-30T12:46:18.291Z,97.76
2017-03-30T12:47:27.246Z,95.94
2017-03-30T12:48:36.457Z,94.79
2017-03-30T12:49:45.420Z,96.03
2017-03-30T12:50:54.380Z,96.42
2017-03-30T12:52:03.337Z,96.7
2017-03-30T12:53:12.297Z,96.89
2017-03-30T12:54:21.513Z,96.61
2017-03-30T12:55:30.478Z,97.38
2017-03-30T12:56:39.612Z,96.13
2017-03-30T12:57:48.590Z,95.75
2017-03-30T12:58:57.549Z,93.73
2017-03-30T13:00:06.810Z,94.98
2017-03-30T13:01:15.771Z,96.61
2017-03-30T13:02:24.728Z,94.79
2017-03-30T13:03:33.687Z,95.84
2017-03-30T13:04:42.653Z,94.98
2017-03-30T13:05:51.912Z,94.4
2017-03-30T13:07:00.875Z,94.21
2017-03-30T13:08:09.923Z,94.02
2017-03-30T13:09:18.973Z,94.4
2017-03-30T13:10:27.931Z,93.92
2017-03-30T13:11:37.196Z,94.79
2017-03-30T13:12:46.242Z,94.69
2017-03-30T13:13:55.198Z,95.46
2017-03-30T13:15:04.156Z,94.88
2017-03-30T13:16:13.122Z,94.59
2017-03-30T13:17:22.380Z,95.75
2017-03-30T13:18:31.340Z,95.55
2017-03-30T13:19:40.305Z,95.94
2017-03-30T13:20:49.271Z,94.88
2017-03-30T13:21:58.567Z,94.49
2017-03-30T13:23:07.782Z,93.44
2017-03-30T13:24:16.827Z,91.52
2017-03-30T13:25:25.783Z,92.29
2017-03-30T13:26:34.744Z,93.44
2017-03-30T13:27:43.797Z,93.06
2017-03-30T13:28:53.007Z,93.54
2017-03-30T13:30:01.967Z,94.88
2017-03-30T13:31:10.927Z,93.73
2017-03-30T13:32:19.971Z,91.81
2017-03-30T13:33:28.927Z,91.91
2017-03-30T13:34:38.137Z,93.63
2017-03-30T13:35:47.129Z,94.02
2017-03-30T13:36:56.104Z,92.86
2017-03-30T13:38:05.396Z,93.73
2017-03-30T13:39:14.352Z,92.86
2017-03-30T13:40:23.610Z,93.92
2017-03-30T13:41:32.568Z,93.73
2017-03-30T13:42:41.532Z,93.25
2017-03-30T13:43:50.497Z,94.98
2017-03-30T13:44:59.455Z,95.94
2017-03-30T13:46:08.739Z,95.17
2017-03-30T13:47:17.703Z,94.79
2017-03-30T13:48:26.750Z,94.12
2017-03-30T13:49:35.798Z,92.96
2017-03-30T13:50:44.758Z,93.15
2017-03-30T13:51:54.141Z,90.47
2017-03-30T13:53:03.100Z,93.44
2017-03-30T13:54:12.061Z,93.92
2017-03-30T13:55:21.020Z,92.68
2017-03-30T13:56:29.975Z,93.25
2017-03-30T13:57:39.242Z,92.1
2017-03-30T13:58:48.203Z,91.33
2017-03-30T13:59:57.163Z,92.58
2017-03-30T14:01:06.213Z,93.54
2017-03-30T14:02:15.169Z,94.02
2017-03-30T14:03:24.515Z,94.02
2017-03-30T14:04:33.479Z,93.73
2017-03-30T14:05:42.437Z,92.1
2017-03-30T14:06:51.395Z,93.73
2017-03-30T14:08:00.446Z,94.4
2017-03-30T14:09:09.704Z,94.79
2017-03-30T14:10:18.664Z,93.15
2017-03-30T14:11:27.623Z,93.92
2017-03-30T14:12:36.580Z,94.02
2017-03-30T14:13:45.534Z,92.48
2017-03-30T14:14:54.880Z,93.06
2017-03-30T14:16:03.842Z,93.35
2017-03-30T14:17:12.804Z,93.15
2017-03-30T14:18:21.937Z,94.02
2017-03-30T14:19:30.908Z,94.4
2017-03-30T14:20:40.260Z,94.69
2017-03-30T14:21:49.219Z,95.26
2017-03-30T14:22:58.505Z,94.31
2017-03-30T14:24:07.464Z,93.63
2017-03-30T14:25:16.419Z,94.21
2017-03-30T14:26:25.631Z,95.12
2017-03-30T14:27:34.592Z,94.79
2017-03-30T14:28:43.650Z,94.83
2017-03-30T14:29:52.611Z,93.68
2017-03-30T14:31:01.888Z,94.74
2017-03-30T14:32:11.151Z,93.77
2017-03-30T14:33:20.109Z,91.09
2017-03-30T14:34:29.069Z,87.63
2017-03-30T14:35:38.029Z,90.42
2017-03-30T14:36:46.990Z,92.72
2017-03-30T14:37:56.253Z,94.07
2017-03-30T14:39:05.299Z,93.97
2017-03-30T14:40:14.256Z,94.16
2017-03-30T14:41:23.214Z,93.39
2017-03-30T14:42:32.194Z,94.07
2017-03-30T14:43:41.406Z,92.05
2017-03-30T14:44:50.370Z,92.24
2017-03-30T14:45:59.420Z,92.53
2017-03-30T14:47:08.473Z,91.66
2017-03-30T14:48:17.443Z,92.14
2017-03-30T14:49:26.654Z,92.29
2017-03-30T14:50:35.613Z,93.34